Time;durP1;ratioP1;P1;durP2;ratioP2;P2;SDS_P1;SDS_P2;PMS_P1;PMS_P2;Temp;Humidity;BMP_temperature;BMP_pressure;BME280_temperature;BME280_humidity;BME280_pressure;Samples;Min_cycle;Max_cycle;Signal;HPM_P1;HPM_P2
2022/06/05 00:00:33;;;;;;;19.90;18.10;;;;;;;;;;5036700;28;20099;-86
2022/06/05 00:03:13;;;;;;;19.50;17.73;;;;;;;;;;5037467;28;20056;-86
2022/06/05 00:05:47;;;;;;;20.98;18.92;;;;;;;;;;5036595;28;20132;-85
2022/06/05 00:08:39;;;;;;;21.67;19.63;;;;;;;;;;5054020;28;20107;-85
2022/06/05 00:11:08;;;;;;;20.05;18.25;;;;;;;;;;5036947;28;20049;-85
2022/06/05 00:13:38;;;;;;;20.75;18.85;;;;;;;;;;5054375;28;20049;-85
2022/06/05 00:16:07;;;;;;;18.80;16.98;;;;;;;;;;5036724;28;20056;-85
2022/06/05 00:18:35;;;;;;;18.73;17.02;;;;;;;;;;5036290;28;20041;-85
2022/06/05 00:21:03;;;;;;;19.10;17.35;;;;;;;;;;5036186;28;20132;-85
2022/06/05 00:23:30;;;;;;;21.35;18.92;;;;;;;;;;5036178;28;20482;-84
2022/06/05 00:26:03;;;;;;;20.40;18.40;;;;;;;;;;5053642;28;20067;-85
2022/06/05 00:28:38;;;;;;;19.50;17.80;;;;;;;;;;5036460;28;20049;-85
2022/06/05 00:31:16;;;;;;;21.67;19.60;;;;;;;;;;5036135;28;20128;-85
2022/06/05 00:33:43;;;;;;;19.23;17.35;;;;;;;;;;5053758;28;20493;-85
2022/06/05 00:36:23;;;;;;;19.90;18.10;;;;;;;;;;5053815;28;20052;-85
2022/06/05 00:39:05;;;;;;;20.08;18.27;;;;;;;;;;5035357;28;20051;-85
2022/06/05 00:41:48;;;;;;;19.90;17.90;;;;;;;;;;5035835;28;20085;-84
2022/06/05 00:44:17;;;;;;;20.52;18.17;;;;;;;;;;5053389;28;20049;-85
2022/06/05 00:46:46;;;;;;;20.30;18.30;;;;;;;;;;5035915;28;20049;-85
2022/06/05 00:49:13;;;;;;;21.27;19.27;;;;;;;;;;5053792;28;20055;-85
2022/06/05 00:51:40;;;;;;;21.35;19.23;;;;;;;;;;5035808;28;20049;-86
2022/06/05 00:54:09;;;;;;;21.17;19.17;;;;;;;;;;5036057;28;20075;-85
2022/06/05 00:56:38;;;;;;;23.88;21.42;;;;;;;;;;5053175;28;20516;-85
2022/06/05 00:59:06;;;;;;;24.75;22.27;;;;;;;;;;5035793;28;20095;-85
2022/06/05 01:01:33;;;;;;;24.55;21.98;;;;;;;;;;5053393;28;20129;-85
2022/06/05 01:04:01;;;;;;;21.05;19.08;;;;;;;;;;5035578;28;20049;-85
2022/06/05 01:06:32;;;;;;;21.35;19.20;;;;;;;;;;5035331;28;20049;-85
2022/06/05 01:08:59;;;;;;;21.42;19.23;;;;;;;;;;5035605;28;20136;-85
2022/06/05 01:11:36;;;;;;;22.15;20.13;;;;;;;;;;5053235;28;20076;-85
2022/06/05 01:14:29;;;;;;;20.58;18.77;;;;;;;;;;5038671;28;20148;-86
2022/06/05 01:17:05;;;;;;;20.90;18.90;;;;;;;;;;5035336;28;20045;-85
2022/06/05 01:19:41;;;;;;;20.55;18.55;;;;;;;;;;5035586;28;20470;-85
2022/06/05 01:22:30;;;;;;;21.30;19.30;;;;;;;;;;5053070;28;20512;-85
2022/06/05 01:25:16;;;;;;;23.20;20.80;;;;;;;;;;5035076;28;20095;-85
2022/06/05 01:27:46;;;;;;;25.30;22.70;;;;;;;;;;5035001;28;20124;-85
2022/06/05 01:30:20;;;;;;;31.20;22.90;;;;;;;;;;5035290;28;20132;-85
2022/06/05 01:32:48;;;;;;;20.73;18.77;;;;;;;;;;5035147;28;20147;-86
2022/06/05 01:35:24;;;;;;;20.67;18.77;;;;;;;;;;5052609;28;20501;-84
2022/06/05 01:37:54;;;;;;;20.73;18.80;;;;;;;;;;5052641;28;20132;-85
2022/06/05 01:40:33;;;;;;;21.90;19.70;;;;;;;;;;5052686;28;20049;-85
2022/06/05 01:43:06;;;;;;;21.10;19.08;;;;;;;;;;5035263;28;20141;-85
2022/06/05 01:45:35;;;;;;;20.80;18.25;;;;;;;;;;5035233;28;20382;-85
2022/06/05 01:48:04;;;;;;;22.20;20.05;;;;;;;;;;5034480;28;20063;-86
2022/06/05 01:50:38;;;;;;;21.05;18.92;;;;;;;;;;5052727;28;20444;-86
2022/06/05 01:53:21;;;;;;;21.02;19.02;;;;;;;;;;5035217;28;20053;-85
2022/06/05 01:55:55;;;;;;;22.87;20.70;;;;;;;;;;5034994;28;20099;-85
2022/06/05 01:58:26;;;;;;;21.60;19.60;;;;;;;;;;5034935;28;20476;-84
2022/06/05 02:00:54;;;;;;;20.75;18.73;;;;;;;;;;5035012;28;20493;-85
2022/06/05 02:03:24;;;;;;;22.52;20.42;;;;;;;;;;5052284;28;20053;-85
2022/06/05 02:05:56;;;;;;;22.85;20.65;;;;;;;;;;5051834;28;20045;-84
2022/06/05 02:08:34;;;;;;;22.42;20.30;;;;;;;;;;5034781;28;20136;-85
2022/06/05 02:11:07;;;;;;;21.38;19.38;;;;;;;;;;5052136;28;20128;-85
2022/06/05 02:13:35;;;;;;;21.77;19.40;;;;;;;;;;5034795;28;20405;-85
2022/06/05 02:16:02;;;;;;;21.73;19.55;;;;;;;;;;5052177;28;20111;-86
2022/06/05 02:18:31;;;;;;;21.95;19.85;;;;;;;;;;5052218;28;20049;-85
2022/06/05 02:20:58;;;;;;;28.08;22.40;;;;;;;;;;5052273;28;20151;-85
2022/06/05 02:23:27;;;;;;;21.52;19.40;;;;;;;;;;5034319;28;20072;-85
2022/06/05 02:25:55;;;;;;;22.33;20.20;;;;;;;;;;5034172;28;20172;-85
2022/06/05 02:28:22;;;;;;;22.63;20.52;;;;;;;;;;5051974;28;20151;-86
2022/06/05 02:31:08;;;;;;;22.33;20.23;;;;;;;;;;5034407;28;20129;-86
2022/06/05 02:34:05;;;;;;;22.60;20.40;;;;;;;;;;5034933;28;20049;-86
2022/06/05 02:36:53;;;;;;;26.25;23.77;;;;;;;;;;5052086;28;20059;-85
2022/06/05 02:39:20;;;;;;;27.10;24.23;;;;;;;;;;5034719;28;20120;-85
2022/06/05 02:42:04;;;;;;;26.73;23.58;;;;;;;;;;5034465;28;20056;-85
2022/06/05 02:44:45;;;;;;;22.10;20.02;;;;;;;;;;5052017;28;20049;-85
2022/06/05 02:47:26;;;;;;;21.92;19.92;;;;;;;;;;5034444;28;20049;-85
2022/06/05 02:50:00;;;;;;;25.63;22.38;;;;;;;;;;5034732;28;20128;-85
2022/06/05 02:52:27;;;;;;;;;;;;;;;;;;5034902;28;20098;-85
2022/06/05 02:55:00;;;;;;;26.73;23.48;;;;;;;;;;5033932;28;20015;-85
2022/06/05 02:57:27;;;;;;;;;;;;;;;;;;5034914;28;20087;-85
2022/06/05 02:59:55;;;;;;;25.63;23.13;;;;;;;;;;5051660;28;20391;-84
2022/06/05 03:05:08;;;;;;;23.38;20.98;;;;;;;;;;5055311;28;20091;-85
2022/06/05 03:07:35;;;;;;;25.73;23.13;;;;;;;;;;5037783;28;20136;-85
2022/06/05 03:10:03;;;;;;;26.73;23.95;;;;;;;;;;5037766;28;20095;-85
2022/06/05 03:12:30;;;;;;;26.48;23.65;;;;;;;;;;5038024;28;20081;-85
2022/06/05 03:15:01;;;;;;;27.35;24.65;;;;;;;;;;5037801;28;20383;-85
2022/06/05 03:17:29;;;;;;;32.08;27.08;;;;;;;;;;5055411;28;20494;-86
2022/06/05 03:19:57;;;;;;;28.17;25.38;;;;;;;;;;5037380;28;20048;-85
2022/06/05 03:22:24;;;;;;;26.85;24.13;;;;;;;;;;5037361;28;20144;-85
2022/06/05 03:24:52;;;;;;;26.85;24.08;;;;;;;;;;5037623;28;20076;-85
2022/06/05 03:27:20;;;;;;;28.33;25.30;;;;;;;;;;5037702;28;20136;-85
2022/06/05 03:29:48;;;;;;;26.90;24.30;;;;;;;;;;5037505;28;20041;-86
2022/06/05 03:32:15;;;;;;;27.67;24.85;;;;;;;;;;5037462;28;20108;-85
2022/06/05 03:34:42;;;;;;;28.02;25.02;;;;;;;;;;5037425;28;20056;-85
2022/06/05 03:37:09;;;;;;;29.55;26.55;;;;;;;;;;5037283;28;20049;-85
2022/06/05 03:39:36;;;;;;;25.45;22.98;;;;;;;;;;5054808;28;20044;-85
2022/06/05 03:42:04;;;;;;;29.58;26.65;;;;;;;;;;5037328;28;20084;-86
2022/06/05 03:44:31;;;;;;;27.85;24.90;;;;;;;;;;5037081;28;20139;-85
2022/06/05 03:46:58;;;;;;;26.92;24.30;;;;;;;;;;5036933;28;20048;-85
2022/06/05 03:49:25;;;;;;;29.02;26.10;;;;;;;;;;5056344;28;20128;-86
2022/06/05 03:51:53;;;;;;;32.20;28.88;;;;;;;;;;5037743;28;20103;-85
2022/06/05 03:54:21;;;;;;;31.42;28.30;;;;;;;;;;5036850;28;20133;-85
2022/06/05 03:56:48;;;;;;;36.85;32.28;;;;;;;;;;5037002;28;20139;-85
2022/06/05 03:59:15;;;;;;;40.80;34.47;;;;;;;;;;5054341;28;20071;-85
2022/06/05 04:01:42;;;;;;;30.65;27.65;;;;;;;;;;5036903;28;20068;-86
2022/06/05 04:04:09;;;;;;;34.83;31.25;;;;;;;;;;5054141;28;20049;-85
2022/06/05 04:06:37;;;;;;;39.63;35.60;;;;;;;;;;5054300;28;20095;-85
2022/06/05 04:09:06;;;;;;;42.85;38.28;;;;;;;;;;5037028;28;20048;-85
2022/06/05 04:11:34;;;;;;;35.65;32.20;;;;;;;;;;5036426;28;20067;-85
2022/06/05 04:14:02;;;;;;;36.63;33.10;;;;;;;;;;5036789;28;20139;-85
2022/06/05 04:16:30;;;;;;;30.25;27.25;;;;;;;;;;5036593;28;20140;-85
2022/06/05 04:18:57;;;;;;;28.50;25.80;;;;;;;;;;5054229;28;20131;-85
2022/06/05 04:21:26;;;;;;;31.83;28.88;;;;;;;;;;5036517;28;20131;-85
2022/06/05 04:23:54;;;;;;;31.23;28.33;;;;;;;;;;5036442;28;20497;-85
2022/06/05 04:26:23;;;;;;;27.85;25.13;;;;;;;;;;5036255;28;20132;-85
2022/06/05 04:28:53;;;;;;;23.55;21.52;;;;;;;;;;5036261;28;20049;-85
2022/06/05 04:31:23;;;;;;;22.20;20.30;;;;;;;;;;5053993;28;20087;-85
2022/06/05 04:33:51;;;;;;;21.65;19.58;;;;;;;;;;5036318;28;20056;-85
2022/06/05 04:36:18;;;;;;;19.27;17.45;;;;;;;;;;5036265;28;20049;-85
2022/06/05 04:38:46;;;;;;;17.58;15.88;;;;;;;;;;5035856;28;20049;-86
2022/06/05 04:41:14;;;;;;;25.63;22.25;;;;;;;;;;5053884;28;20076;-85
2022/06/05 04:43:41;;;;;;;24.23;21.67;;;;;;;;;;5053578;28;20077;-85
2022/06/05 04:46:09;;;;;;;18.05;16.52;;;;;;;;;;5036115;28;20135;-85
2022/06/05 04:48:36;;;;;;;14.13;12.95;;;;;;;;;;5035821;28;20059;-85
2022/06/05 04:51:07;;;;;;;12.40;11.38;;;;;;;;;;5053610;28;20040;-86
2022/06/05 04:53:35;;;;;;;11.00;10.10;;;;;;;;;;5053155;28;20052;-84
2022/06/05 04:56:03;;;;;;;11.10;10.10;;;;;;;;;;5053018;28;20452;-85
2022/06/05 04:58:30;;;;;;;10.70;9.80;;;;;;;;;;5053202;28;20123;-85
2022/06/05 05:00:57;;;;;;;10.68;9.68;;;;;;;;;;5053485;28;20084;-85
2022/06/05 05:03:24;;;;;;;12.13;10.85;;;;;;;;;;5053387;28;20496;-86
2022/06/05 05:05:52;;;;;;;11.90;10.88;;;;;;;;;;5052953;28;20056;-85
2022/06/05 05:08:19;;;;;;;10.75;9.75;;;;;;;;;;5036987;28;20414;-85
2022/06/05 05:10:47;;;;;;;8.95;8.25;;;;;;;;;;5052465;28;20045;-85
2022/06/05 05:13:14;;;;;;;8.85;8.05;;;;;;;;;;5035476;28;20053;-86
2022/06/05 05:15:41;;;;;;;7.97;7.25;;;;;;;;;;5053104;28;20476;-86
2022/06/05 05:18:08;;;;;;;6.85;6.35;;;;;;;;;;5053105;28;20136;-86
2022/06/05 05:20:36;;;;;;;6.65;6.15;;;;;;;;;;5053554;28;20063;-86
2022/06/05 05:23:03;;;;;;;7.70;7.00;;;;;;;;;;5034825;28;20059;-85
2022/06/05 05:25:30;;;;;;;6.43;5.93;;;;;;;;;;5035258;28;20468;-85
2022/06/05 05:27:57;;;;;;;6.43;5.95;;;;;;;;;;5035522;28;20470;-86
2022/06/05 05:30:25;;;;;;;8.27;7.57;;;;;;;;;;5052889;28;20080;-84
2022/06/05 05:32:52;;;;;;;6.00;5.60;;;;;;;;;;5035212;28;20056;-85
2022/06/05 05:35:20;;;;;;;5.78;5.38;;;;;;;;;;5034904;28;20155;-85
2022/06/05 05:37:47;;;;;;;5.63;5.10;;;;;;;;;;5033633;28;20124;-85
2022/06/05 05:43:00;;;;;;;5.75;5.38;;;;;;;;;;5051820;28;20435;-86
2022/06/05 05:45:28;;;;;;;6.05;5.60;;;;;;;;;;5034131;28;20140;-85
2022/06/05 05:47:55;;;;;;;7.20;5.25;;;;;;;;;;5051589;28;20134;-86
2022/06/05 05:50:22;;;;;;;6.43;5.80;;;;;;;;;;5034104;28;20132;-85
2022/06/05 05:52:49;;;;;;;8.68;5.70;;;;;;;;;;5034397;28;20140;-87
2022/06/05 05:55:19;;;;;;;9.13;6.20;;;;;;;;;;5033937;28;20051;-86
2022/06/05 05:57:47;;;;;;;7.15;6.20;;;;;;;;;;5034071;28;20569;-86
2022/06/05 06:00:15;;;;;;;10.30;6.70;;;;;;;;;;5034296;28;20053;-85
2022/06/05 06:02:43;;;;;;;10.20;6.20;;;;;;;;;;5034056;28;20514;-85
2022/06/05 06:05:13;;;;;;;9.40;6.13;;;;;;;;;;5051560;28;20382;-85
2022/06/05 06:07:40;;;;;;;11.75;5.93;;;;;;;;;;5034140;28;20206;-85
2022/06/05 06:10:07;;;;;;;10.45;6.03;;;;;;;;;;5033640;28;20080;-85
2022/06/05 06:12:35;;;;;;;10.32;5.85;;;;;;;;;;5034306;28;20110;-85
2022/06/05 06:15:02;;;;;;;13.77;6.18;;;;;;;;;;5051409;28;20557;-85
2022/06/05 06:17:29;;;;;;;22.08;6.18;;;;;;;;;;5033771;28;20131;-85
2022/06/05 06:19:56;;;;;;;10.73;5.60;;;;;;;;;;5033974;28;20055;-85
2022/06/05 06:22:23;;;;;;;6.05;5.18;;;;;;;;;;5034089;28;20060;-86
2022/06/05 06:24:52;;;;;;;7.47;5.28;;;;;;;;;;5035229;28;20053;-87
2022/06/05 06:27:19;;;;;;;7.32;5.65;;;;;;;;;;5038273;28;20163;-85
2022/06/05 06:29:46;;;;;;;5.85;5.43;;;;;;;;;;5051414;28;20053;-83
2022/06/05 06:32:14;;;;;;;6.80;5.57;;;;;;;;;;5051650;28;20049;-84
2022/06/05 06:34:41;;;;;;;5.68;5.15;;;;;;;;;;5033702;28;20099;-84
2022/06/05 06:37:08;;;;;;;6.60;5.53;;;;;;;;;;5037262;28;20067;-84
2022/06/05 06:39:35;;;;;;;7.43;5.40;;;;;;;;;;5037737;28;20048;-83
2022/06/05 06:42:03;;;;;;;8.52;4.95;;;;;;;;;;5037610;28;20401;-83
2022/06/05 06:44:30;;;;;;;5.72;5.22;;;;;;;;;;5055019;28;20077;-83
2022/06/05 06:46:57;;;;;;;5.05;4.63;;;;;;;;;;5055277;28;20049;-83
2022/06/05 06:49:24;;;;;;;4.80;4.30;;;;;;;;;;5037373;28;20053;-84
2022/06/05 06:51:51;;;;;;;4.53;4.10;;;;;;;;;;5055072;28;20584;-84
2022/06/05 06:54:19;;;;;;;5.90;5.40;;;;;;;;;;5037559;28;20111;-83
2022/06/05 06:56:46;;;;;;;4.97;4.60;;;;;;;;;;5055148;28;20084;-83
2022/06/05 06:59:13;;;;;;;7.68;5.18;;;;;;;;;;5054984;28;20075;-84
2022/06/05 07:01:40;;;;;;;5.68;5.15;;;;;;;;;;5037645;28;20139;-84
2022/06/05 07:04:08;;;;;;;6.30;5.70;;;;;;;;;;5037522;28;20051;-83
2022/06/05 07:06:36;;;;;;;5.28;4.80;;;;;;;;;;5037423;28;20128;-83
2022/06/05 07:09:03;;;;;;;5.93;4.90;;;;;;;;;;5037361;28;20060;-84
2022/06/05 07:11:30;;;;;;;6.00;5.45;;;;;;;;;;5037160;28;20145;-84
2022/06/05 07:13:58;;;;;;;5.85;5.05;;;;;;;;;;5054683;28;20049;-83
2022/06/05 07:16:25;;;;;;;6.38;5.88;;;;;;;;;;5037006;28;20052;-84
2022/06/05 07:18:53;;;;;;;8.50;5.50;;;;;;;;;;5036851;28;20099;-84
2022/06/05 07:21:22;;;;;;;5.72;5.22;;;;;;;;;;5054715;28;20057;-84
2022/06/05 07:23:53;;;;;;;5.55;4.72;;;;;;;;;;5054339;28;20049;-84
2022/06/05 07:26:21;;;;;;;5.57;5.10;;;;;;;;;;5036853;28;20271;-84
2022/06/05 07:28:49;;;;;;;5.03;4.55;;;;;;;;;;5054285;28;20127;-84
2022/06/05 07:31:17;;;;;;;5.35;4.72;;;;;;;;;;5037092;28;20372;-83
2022/06/05 07:33:44;;;;;;;5.40;4.75;;;;;;;;;;5036703;28;20394;-83
2022/06/05 07:36:13;;;;;;;3.97;3.67;;;;;;;;;;5036622;28;20049;-83
2022/06/05 07:38:41;;;;;;;3.28;3.05;;;;;;;;;;5036570;28;20084;-84
2022/06/05 07:41:14;;;;;;;4.07;3.67;;;;;;;;;;5036559;28;20232;-83
2022/06/05 07:43:41;;;;;;;3.50;3.30;;;;;;;;;;5038001;28;20044;-84
2022/06/05 07:46:10;;;;;;;3.42;3.10;;;;;;;;;;5057280;28;20045;-85
2022/06/05 07:48:37;;;;;;;3.00;2.83;;;;;;;;;;5037955;28;20073;-85
2022/06/05 07:56:41;;;;;;;3.70;3.50;;;;;;;;;;5054141;28;20137;-85
2022/06/05 07:59:09;;;;;;;4.45;3.30;;;;;;;;;;5036641;28;20084;-85
2022/06/05 08:01:56;;;;;;;3.10;2.90;;;;;;;;;;5039317;28;20052;-84
2022/06/05 08:04:24;;;;;;;3.03;2.92;;;;;;;;;;5054205;28;20057;-85
2022/06/05 08:06:52;;;;;;;2.70;2.50;;;;;;;;;;5036857;28;20397;-85
2022/06/05 08:09:20;;;;;;;6.07;3.00;;;;;;;;;;5053611;28;20512;-84
2022/06/05 08:11:47;;;;;;;2.78;2.58;;;;;;;;;;5036182;28;20049;-85
2022/06/05 08:14:14;;;;;;;3.38;3.17;;;;;;;;;;5036449;28;20124;-84
2022/06/05 08:16:46;;;;;;;3.88;2.70;;;;;;;;;;5036322;28;20083;-85
2022/06/05 08:19:15;;;;;;;2.38;2.28;;;;;;;;;;5036256;28;20053;-84
2022/06/05 08:21:42;;;;;;;1.98;1.88;;;;;;;;;;5036094;28;20084;-85
2022/06/05 08:24:09;;;;;;;3.95;1.73;;;;;;;;;;5053444;28;20553;-83
2022/06/05 08:26:36;;;;;;;3.05;1.83;;;;;;;;;;5053297;28;20131;-83
2022/06/05 08:29:04;;;;;;;2.38;1.83;;;;;;;;;;5035674;28;20056;-82
2022/06/05 08:31:31;;;;;;;3.03;1.88;;;;;;;;;;5035838;28;20045;-84
2022/06/05 08:34:00;;;;;;;1.75;1.33;;;;;;;;;;5035728;28;20059;-84
2022/06/05 08:36:28;;;;;;;1.63;1.52;;;;;;;;;;5035214;28;20084;-83
2022/06/05 08:41:57;;;;;;;1.30;1.30;;;;;;;;;;5053403;28;20106;-85
2022/06/05 08:44:33;;;;;;;3.22;1.60;;;;;;;;;;5053121;28;20166;-84
2022/06/05 08:47:01;;;;;;;1.10;1.10;;;;;;;;;;5053472;28;20045;-84
2022/06/05 08:49:41;;;;;;;1.95;1.83;;;;;;;;;;5035371;28;20088;-84
2022/06/05 08:52:11;;;;;;;1.90;1.40;;;;;;;;;;5035545;28;20063;-85
2022/06/05 08:54:40;;;;;;;1.83;1.38;;;;;;;;;;5053028;28;20144;-84
2022/06/05 08:57:15;;;;;;;1.40;1.40;;;;;;;;;;5035780;28;20045;-84
2022/06/05 08:59:54;;;;;;;1.40;1.30;;;;;;;;;;5035353;28;20147;-83
2022/06/05 09:02:26;;;;;;;1.30;1.30;;;;;;;;;;5060355;28;20064;-83
2022/06/05 09:04:53;;;;;;;1.70;1.60;;;;;;;;;;5061782;28;20048;-84
2022/06/05 09:07:26;;;;;;;2.05;1.77;;;;;;;;;;5052774;28;20561;-83
2022/06/05 09:10:15;;;;;;;1.90;1.80;;;;;;;;;;5034282;28;20135;-84
2022/06/05 09:12:46;;;;;;;1.77;1.65;;;;;;;;;;5035197;28;20059;-83
2022/06/05 09:15:24;;;;;;;1.95;1.85;;;;;;;;;;5035168;28;20083;-84
2022/06/05 09:17:54;;;;;;;2.03;1.92;;;;;;;;;;5035048;28;20513;-84
2022/06/05 09:20:33;;;;;;;2.10;2.00;;;;;;;;;;5035301;28;20079;-84
2022/06/05 09:23:05;;;;;;;1.90;1.80;;;;;;;;;;5035445;28;20139;-84
2022/06/05 09:25:42;;;;;;;3.22;1.92;;;;;;;;;;5035632;28;20049;-85
2022/06/05 09:28:24;;;;;;;2.40;2.30;;;;;;;;;;5052247;28;20077;-85
2022/06/05 09:31:09;;;;;;;2.10;2.00;;;;;;;;;;5052362;28;20053;-88
2022/06/05 09:33:37;;;;;;;20.23;3.40;;;;;;;;;;5035075;28;20045;-89
2022/06/05 09:36:08;;;;;;;62.10;7.72;;;;;;;;;;5035154;28;20075;-84
2022/06/05 09:38:37;;;;;;;7.03;2.85;;;;;;;;;;5035048;28;20052;-86
2022/06/05 09:41:12;;;;;;;2.03;1.92;;;;;;;;;;5035326;28;20045;-85
2022/06/05 09:43:39;;;;;;;;;;;;;;;;;;5052906;28;20468;-84
2022/06/05 09:46:10;;;;;;;4.25;2.20;;;;;;;;;;5035487;28;19995;-87
2022/06/05 09:48:56;;;;;;;2.30;2.20;;;;;;;;;;5034482;28;20049;-85
2022/06/05 09:51:24;;;;;;;2.47;1.83;;;;;;;;;;5052176;28;20052;-87
2022/06/05 09:54:10;;;;;;;2.10;1.92;;;;;;;;;;5052318;28;20124;-85
2022/06/05 09:59:35;;;;;;;3.00;2.15;;;;;;;;;;5051901;28;20049;-84
2022/06/05 10:02:05;;;;;;;1.92;1.83;;;;;;;;;;5052103;28;20083;-82
2022/06/05 10:04:33;;;;;;;2.30;2.10;;;;;;;;;;5051809;28;20052;-85
2022/06/05 10:07:25;;;;;;;2.08;1.98;;;;;;;;;;5052061;28;20056;-83
2022/06/05 10:09:52;;;;;;;4.03;1.98;;;;;;;;;;5035893;28;20140;-83
2022/06/05 10:12:32;;;;;;;3.35;2.33;;;;;;;;;;5038787;28;20096;-84
2022/06/05 10:15:02;;;;;;;3.85;2.55;;;;;;;;;;5038399;28;20049;-83
2022/06/05 10:17:48;;;;;;;2.22;2.10;;;;;;;;;;5056390;28;20175;-83
2022/06/05 10:20:18;;;;;;;2.60;2.30;;;;;;;;;;5043944;28;20391;-83
2022/06/05 10:22:48;;;;;;;3.28;2.55;;;;;;;;;;5052315;28;20164;-84
2022/06/05 10:25:27;;;;;;;3.42;2.20;;;;;;;;;;5056139;28;20049;-84
2022/06/05 10:27:56;;;;;;;3.88;2.03;;;;;;;;;;5038282;28;20107;-84
2022/06/05 10:30:30;;;;;;;2.45;2.35;;;;;;;;;;5038446;28;20055;-82
2022/06/05 10:33:01;;;;;;;10.55;4.30;;;;;;;;;;5037992;28;20166;-84
2022/06/05 10:35:45;;;;;;;5.18;3.17;;;;;;;;;;5038014;28;20087;-82
2022/06/05 10:38:32;;;;;;;3.90;2.70;;;;;;;;;;5038165;28;20306;-86
2022/06/05 10:41:03;;;;;;;3.40;2.58;;;;;;;;;;5038340;28;20052;-82
2022/06/05 10:43:32;;;;;;;6.75;3.25;;;;;;;;;;5038010;28;20114;-85
2022/06/05 10:46:18;;;;;;;7.10;3.10;;;;;;;;;;5037383;28;20045;-83
2022/06/05 10:48:55;;;;;;;2.85;2.67;;;;;;;;;;5037243;28;20063;-83
2022/06/05 10:51:58;;;;;;;4.63;3.00;;;;;;;;;;5037480;28;20510;-83
2022/06/05 10:54:50;;;;;;;3.13;3.03;;;;;;;;;;4940406;29;20058;-88
2022/06/05 10:57:17;;;;;;;;;;;;;;;;;;5035999;28;20132;-84
2022/06/05 11:00:03;;;;;;;3.25;3.05;;;;;;;;;;5021428;28;20004;-86
2022/06/05 11:02:50;;;;;;;3.70;3.50;;;;;;;;;;5014269;28;20045;-84
2022/06/05 11:05:33;;;;;;;5.03;3.15;;;;;;;;;;5015213;28;20100;-83
2022/06/05 11:08:20;;;;;;;3.42;3.10;;;;;;;;;;5014655;28;20149;-84
2022/06/05 11:13:47;;;;;;;3.45;3.25;;;;;;;;;;5015063;28;20466;-83
2022/06/05 11:16:14;;;;;;;3.53;3.30;;;;;;;;;;5013660;28;20394;-83
2022/06/05 11:18:49;;;;;;;3.47;3.28;;;;;;;;;;5015120;28;20149;-84
2022/06/05 11:21:18;;;;;;;3.55;3.35;;;;;;;;;;5013831;28;20053;-83
2022/06/05 11:23:54;;;;;;;3.42;3.13;;;;;;;;;;5015469;28;20133;-83
2022/06/05 11:26:43;;;;;;;5.53;3.40;;;;;;;;;;5013899;28;20081;-83
2022/06/05 11:29:15;;;;;;;4.22;3.83;;;;;;;;;;5013567;28;20133;-84
2022/06/05 11:31:57;;;;;;;3.90;3.60;;;;;;;;;;5015155;28;20137;-84
2022/06/05 11:34:29;;;;;;;3.95;3.42;;;;;;;;;;5013483;28;20049;-84
2022/06/05 11:37:17;;;;;;;9.02;4.45;;;;;;;;;;5016224;28;20105;-83
2022/06/05 11:39:54;;;;;;;4.15;3.80;;;;;;;;;;5020513;28;20053;-84
2022/06/05 11:42:25;;;;;;;3.55;3.35;;;;;;;;;;5014812;28;20096;-84
2022/06/05 11:44:52;;;;;;;3.70;3.40;;;;;;;;;;5013491;28;20474;-84
2022/06/05 11:47:29;;;;;;;4.05;3.60;;;;;;;;;;5014700;28;20060;-84
2022/06/05 11:50:02;;;;;;;13.52;4.88;;;;;;;;;;5013536;28;20129;-84
2022/06/05 11:52:30;;;;;;;;;;;;;;;;;;5015050;28;20237;-84
2022/06/05 11:55:03;;;;;;;3.45;3.25;;;;;;;;;;5012957;28;20008;-84
2022/06/05 11:57:36;;;;;;;3.50;3.30;;;;;;;;;;5014107;28;20046;-90
2022/06/05 12:00:04;;;;;;;;;;;;;;;;;;5013747;28;20146;-84
2022/06/05 12:02:43;;;;;;;3.63;3.33;;;;;;;;;;5013359;28;19923;-84
2022/06/05 12:05:15;;;;;;;3.45;3.25;;;;;;;;;;5012791;28;20049;-83
2022/06/05 12:07:45;;;;;;;3.63;3.42;;;;;;;;;;5014228;28;20163;-84
2022/06/05 12:10:28;;;;;;;6.93;3.78;;;;;;;;;;5013293;28;20081;-83
2022/06/05 12:12:56;;;;;;;3.42;3.22;;;;;;;;;;5013123;28;20090;-84
2022/06/05 12:15:33;;;;;;;3.83;3.50;;;;;;;;;;5012602;28;20108;-84
2022/06/05 12:18:04;;;;;;;3.00;2.90;;;;;;;;;;5012902;28;20077;-83
2022/06/05 12:20:42;;;;;;;3.08;2.97;;;;;;;;;;5014157;28;20081;-84
2022/06/05 12:23:13;;;;;;;3.13;2.92;;;;;;;;;;5014275;28;20129;-85
2022/06/05 12:25:40;;;;;;;3.45;3.25;;;;;;;;;;5014186;28;20144;-84
2022/06/05 12:28:12;;;;;;;3.80;2.80;;;;;;;;;;5012791;28;20046;-85
2022/06/05 12:30:49;;;;;;;2.75;2.55;;;;;;;;;;5014010;28;20085;-84
2022/06/05 12:33:35;;;;;;;3.33;3.13;;;;;;;;;;5012664;28;20050;-83
2022/06/05 12:36:10;;;;;;;3.63;3.40;;;;;;;;;;5012804;28;20474;-84
2022/06/05 12:38:40;;;;;;;2.90;2.80;;;;;;;;;;5012379;28;20133;-83
2022/06/05 12:41:15;;;;;;;3.22;2.92;;;;;;;;;;5012801;28;20061;-84
2022/06/05 12:43:54;;;;;;;3.88;3.67;;;;;;;;;;5012582;28;20045;-85
2022/06/05 12:46:25;;;;;;;3.63;3.33;;;;;;;;;;5012353;28;20062;-86
2022/06/05 12:49:05;;;;;;;3.03;2.72;;;;;;;;;;5011963;28;20069;-84
2022/06/05 12:51:32;;;;;;;3.00;2.80;;;;;;;;;;5012188;28;20084;-84
2022/06/05 12:54:05;;;;;;;3.10;2.90;;;;;;;;;;5012514;28;20128;-83
2022/06/05 12:56:43;;;;;;;3.38;3.08;;;;;;;;;;5012991;28;20100;-84
2022/06/05 12:59:17;;;;;;;5.40;2.60;;;;;;;;;;5037542;28;20095;-83
2022/06/05 13:01:53;;;;;;;3.03;2.83;;;;;;;;;;5052571;28;20118;-84
2022/06/05 13:04:40;;;;;;;2.78;2.58;;;;;;;;;;5052508;28;20052;-83
2022/06/05 13:07:18;;;;;;;3.50;3.25;;;;;;;;;;5052670;28;20055;-85
2022/06/05 13:09:48;;;;;;;3.33;3.13;;;;;;;;;;5034280;28;20200;-84
2022/06/05 13:12:33;;;;;;;3.13;2.88;;;;;;;;;;5034620;28;20500;-84
2022/06/05 13:15:03;;;;;;;2.95;2.75;;;;;;;;;;5052224;28;20136;-84
2022/06/05 13:17:46;;;;;;;2.70;2.60;;;;;;;;;;5034505;28;20091;-84
2022/06/05 13:20:29;;;;;;;2.50;2.40;;;;;;;;;;5034753;28;20092;-84
2022/06/05 13:23:15;;;;;;;3.03;2.83;;;;;;;;;;5034621;28;20131;-83
2022/06/05 13:25:52;;;;;;;2.72;2.53;;;;;;;;;;5051800;28;20071;-83
2022/06/05 13:28:28;;;;;;;3.80;2.67;;;;;;;;;;5034417;28;20135;-84
2022/06/05 13:31:07;;;;;;;4.97;3.40;;;;;;;;;;5051477;28;20412;-83
2022/06/05 13:33:38;;;;;;;3.13;3.03;;;;;;;;;;5052028;28;20053;-84
2022/06/05 13:36:09;;;;;;;3.78;3.50;;;;;;;;;;5034633;28;20098;-86
2022/06/05 13:38:59;;;;;;;3.20;3.00;;;;;;;;;;5034311;28;20447;-84
2022/06/05 13:41:41;;;;;;;3.25;3.05;;;;;;;;;;5034181;28;20135;-84
2022/06/05 13:44:15;;;;;;;3.00;2.90;;;;;;;;;;5052133;28;20133;-84
2022/06/05 13:47:07;;;;;;;7.97;3.65;;;;;;;;;;5037023;28;20200;-83
2022/06/05 13:49:41;;;;;;;3.78;3.30;;;;;;;;;;5034038;28;20508;-84
2022/06/05 13:52:14;;;;;;;3.83;3.50;;;;;;;;;;5034425;28;20045;-84
2022/06/05 13:54:54;;;;;;;3.60;3.40;;;;;;;;;;5034224;28;20044;-84
2022/06/05 13:57:31;;;;;;;3.55;3.35;;;;;;;;;;5051870;28;20490;-84
2022/06/05 14:00:00;;;;;;;4.50;4.10;;;;;;;;;;5034271;28;20056;-85
2022/06/05 14:02:28;;;;;;;5.93;3.70;;;;;;;;;;5034562;28;20072;-84
2022/06/05 14:05:04;;;;;;;4.32;3.92;;;;;;;;;;5034202;28;20068;-84
2022/06/05 14:07:42;;;;;;;4.38;4.07;;;;;;;;;;5051390;28;20125;-84
2022/06/05 14:10:09;;;;;;;4.35;3.90;;;;;;;;;;5034077;28;20148;-83
2022/06/05 14:12:43;;;;;;;4.47;4.18;;;;;;;;;;5034210;28;20436;-84
2022/06/05 14:15:16;;;;;;;4.47;3.75;;;;;;;;;;5045480;28;20273;-83
2022/06/05 14:17:46;;;;;;;4.10;3.90;;;;;;;;;;5057251;28;20131;-84
2022/06/05 14:20:19;;;;;;;4.85;4.50;;;;;;;;;;5051415;28;20059;-84
2022/06/05 14:22:51;;;;;;;6.18;4.50;;;;;;;;;;5033770;28;20106;-83
2022/06/05 14:25:19;;;;;;;8.13;4.40;;;;;;;;;;5033578;28;20115;-84
2022/06/05 14:27:52;;;;;;;8.43;5.07;;;;;;;;;;5033831;28;20104;-84
2022/06/05 14:30:21;;;;;;;5.38;4.65;;;;;;;;;;5034027;28;20391;-84
2022/06/05 14:32:48;;;;;;;4.88;4.18;;;;;;;;;;5051348;28;20049;-84
2022/06/05 14:35:15;;;;;;;5.85;5.25;;;;;;;;;;5033588;28;20055;-84
2022/06/05 14:37:50;;;;;;;6.18;4.43;;;;;;;;;;5033930;28;20056;-84
2022/06/05 14:40:19;;;;;;;5.63;4.80;;;;;;;;;;5033941;28;20136;-84
2022/06/05 14:43:14;;;;;;;5.15;4.78;;;;;;;;;;5034188;28;20092;-84
2022/06/05 14:45:43;;;;;;;5.78;5.13;;;;;;;;;;5030600;28;20477;-84
2022/06/05 14:48:39;;;;;;;5.30;4.90;;;;;;;;;;5034365;28;20543;-84
2022/06/05 14:51:25;;;;;;;5.63;5.22;;;;;;;;;;5030989;28;20049;-86
2022/06/05 14:53:55;;;;;;;6.40;5.35;;;;;;;;;;5034305;28;20056;-84
2022/06/05 14:59:26;;;;;;;6.28;5.20;;;;;;;;;;5055424;28;20088;-85
2022/06/05 15:01:58;;;;;;;6.68;6.07;;;;;;;;;;5037853;28;20452;-84
2022/06/05 15:04:36;;;;;;;5.43;5.00;;;;;;;;;;5037634;28;20472;-84
2022/06/05 15:07:10;;;;;;;6.18;5.78;;;;;;;;;;5037614;28;20049;-84
2022/06/05 15:09:40;;;;;;;6.13;5.65;;;;;;;;;;5037204;28;20080;-84
2022/06/05 15:12:10;;;;;;;5.88;5.43;;;;;;;;;;5037462;28;20136;-84
2022/06/05 15:14:45;;;;;;;5.57;5.20;;;;;;;;;;5037062;28;20056;-84
2022/06/05 15:17:15;;;;;;;6.22;5.53;;;;;;;;;;5055255;28;20076;-84
2022/06/05 15:19:44;;;;;;;5.38;5.07;;;;;;;;;;5055102;28;20140;-84
2022/06/05 15:22:17;;;;;;;5.43;5.13;;;;;;;;;;5054856;28;20079;-85
2022/06/05 15:24:52;;;;;;;5.40;5.10;;;;;;;;;;5054529;28;20049;-84
2022/06/05 15:27:35;;;;;;;5.50;5.00;;;;;;;;;;5039043;28;20100;-84